sensor_id;sensor_type;location;lat;lon;timestamp;P1;durP1;ratioP1;P2;durP2;ratioP2
26656;SDS011;14279;50.010;8.260;2022-11-02T00:00:30;13.63;;;4.97;;
26656;SDS011;14279;50.010;8.260;2022-11-02T00:02:56;15.10;;;4.13;;
26656;SDS011;14279;50.010;8.260;2022-11-02T00:05:21;11.73;;;4.33;;
26656;SDS011;14279;50.010;8.260;2022-11-02T00:07:50;12.93;;;4.97;;
26656;SDS011;14279;50.010;8.260;2022-11-02T00:10:16;15.33;;;4.70;;
26656;SDS011;14279;50.010;8.260;2022-11-02T00:12:42;13.13;;;4.20;;
26656;SDS011;14279;50.010;8.260;2022-11-02T00:15:08;12.00;;;4.97;;
26656;SDS011;14279;50.010;8.260;2022-11-02T00:17:34;10.37;;;3.93;;
26656;SDS011;14279;50.010;8.260;2022-11-02T00:20:00;9.17;;;4.60;;
26656;SDS011;14279;50.010;8.260;2022-11-02T00:22:33;14.37;;;4.70;;
26656;SDS011;14279;50.010;8.260;2022-11-02T00:24:59;14.33;;;4.20;;
26656;SDS011;14279;50.010;8.260;2022-11-02T00:27:36;16.97;;;5.07;;
26656;SDS011;14279;50.010;8.260;2022-11-02T00:30:03;9.87;;;4.10;;
26656;SDS011;14279;50.010;8.260;2022-11-02T00:32:29;14.83;;;4.63;;
26656;SDS011;14279;50.010;8.260;2022-11-02T00:34:54;16.13;;;4.27;;
26656;SDS011;14279;50.010;8.260;2022-11-02T00:37:20;21.03;;;4.53;;
26656;SDS011;14279;50.010;8.260;2022-11-02T00:39:45;14.10;;;4.57;;
26656;SDS011;14279;50.010;8.260;2022-11-02T00:42:10;13.17;;;3.83;;
26656;SDS011;14279;50.010;8.260;2022-11-02T00:44:35;18.40;;;4.70;;
26656;SDS011;14279;50.010;8.260;2022-11-02T00:47:01;12.27;;;4.53;;
26656;SDS011;14279;50.010;8.260;2022-11-02T00:49:26;20.13;;;5.43;;
26656;SDS011;14279;50.010;8.260;2022-11-02T00:51:51;18.33;;;4.57;;
26656;SDS011;14279;50.010;8.260;2022-11-02T00:54:16;13.47;;;4.23;;
26656;SDS011;14279;50.010;8.260;2022-11-02T00:56:42;18.37;;;4.80;;
26656;SDS011;14279;50.010;8.260;2022-11-02T00:59:07;15.57;;;4.20;;
26656;SDS011;14279;50.010;8.260;2022-11-02T01:01:32;12.20;;;4.00;;
26656;SDS011;14279;50.010;8.260;2022-11-02T01:03:58;17.03;;;4.43;;
26656;SDS011;14279;50.010;8.260;2022-11-02T01:06:23;14.60;;;4.13;;
26656;SDS011;14279;50.010;8.260;2022-11-02T01:08:48;14.80;;;4.40;;
26656;SDS011;14279;50.010;8.260;2022-11-02T01:11:18;12.80;;;3.60;;
26656;SDS011;14279;50.010;8.260;2022-11-02T01:13:45;29.60;;;4.20;;
26656;SDS011;14279;50.010;8.260;2022-11-02T01:16:11;12.13;;;4.07;;
26656;SDS011;14279;50.010;8.260;2022-11-02T01:18:38;12.07;;;4.13;;
26656;SDS011;14279;50.010;8.260;2022-11-02T01:21:04;13.40;;;4.20;;
26656;SDS011;14279;50.010;8.260;2022-11-02T01:23:30;11.90;;;3.83;;
26656;SDS011;14279;50.010;8.260;2022-11-02T01:25:57;16.33;;;4.07;;
26656;SDS011;14279;50.010;8.260;2022-11-02T01:28:22;13.73;;;3.70;;
26656;SDS011;14279;50.010;8.260;2022-11-02T01:30:47;18.10;;;4.50;;
26656;SDS011;14279;50.010;8.260;2022-11-02T01:33:13;16.63;;;4.73;;
26656;SDS011;14279;50.010;8.260;2022-11-02T01:35:38;16.60;;;3.17;;
26656;SDS011;14279;50.010;8.260;2022-11-02T01:38:04;19.33;;;4.37;;
26656;SDS011;14279;50.010;8.260;2022-11-02T01:40:38;16.90;;;4.00;;
26656;SDS011;14279;50.010;8.260;2022-11-02T01:45:51;18.13;;;4.50;;
26656;SDS011;14279;50.010;8.260;2022-11-02T01:48:20;17.63;;;4.80;;
26656;SDS011;14279;50.010;8.260;2022-11-02T01:50:52;16.73;;;4.60;;
26656;SDS011;14279;50.010;8.260;2022-11-02T01:53:18;18.03;;;4.40;;
26656;SDS011;14279;50.010;8.260;2022-11-02T01:55:43;14.53;;;4.27;;
26656;SDS011;14279;50.010;8.260;2022-11-02T01:58:09;18.23;;;4.27;;
26656;SDS011;14279;50.010;8.260;2022-11-02T02:00:36;13.60;;;3.60;;
26656;SDS011;14279;50.010;8.260;2022-11-02T02:03:09;20.83;;;4.07;;
26656;SDS011;14279;50.010;8.260;2022-11-02T02:05:41;15.17;;;3.87;;
26656;SDS011;14279;50.010;8.260;2022-11-02T02:08:13;13.40;;;4.23;;
26656;SDS011;14279;50.010;8.260;2022-11-02T02:10:41;11.13;;;4.00;;
26656;SDS011;14279;50.010;8.260;2022-11-02T02:13:07;20.57;;;3.97;;
26656;SDS011;14279;50.010;8.260;2022-11-02T02:15:40;10.90;;;3.60;;
26656;SDS011;14279;50.010;8.260;2022-11-02T02:18:25;13.87;;;4.17;;
26656;SDS011;14279;50.010;8.260;2022-11-02T02:23:57;10.77;;;4.00;;
26656;SDS011;14279;50.010;8.260;2022-11-02T02:26:37;13.83;;;4.10;;
26656;SDS011;14279;50.010;8.260;2022-11-02T02:29:23;16.20;;;4.23;;
26656;SDS011;14279;50.010;8.260;2022-11-02T02:32:57;13.60;;;4.70;;
26656;SDS011;14279;50.010;8.260;2022-11-02T02:37:48;15.43;;;4.13;;
26656;SDS011;14279;50.010;8.260;2022-11-02T02:40:21;15.93;;;4.73;;
26656;SDS011;14279;50.010;8.260;2022-11-02T02:42:55;12.90;;;4.37;;
26656;SDS011;14279;50.010;8.260;2022-11-02T02:45:35;17.60;;;4.37;;
26656;SDS011;14279;50.010;8.260;2022-11-02T02:48:05;11.27;;;4.00;;
26656;SDS011;14279;50.010;8.260;2022-11-02T02:50:38;11.70;;;4.17;;
26656;SDS011;14279;50.010;8.260;2022-11-02T02:53:09;11.43;;;4.23;;
26656;SDS011;14279;50.010;8.260;2022-11-02T02:55:38;10.73;;;4.63;;
26656;SDS011;14279;50.010;8.260;2022-11-02T02:58:10;14.20;;;4.13;;
26656;SDS011;14279;50.010;8.260;2022-11-02T03:00:40;23.20;;;4.80;;
26656;SDS011;14279;50.010;8.260;2022-11-02T03:03:05;11.23;;;4.03;;
26656;SDS011;14279;50.010;8.260;2022-11-02T03:05:39;12.07;;;4.50;;
26656;SDS011;14279;50.010;8.260;2022-11-02T03:08:11;14.87;;;4.30;;
26656;SDS011;14279;50.010;8.260;2022-11-02T03:10:51;16.30;;;4.50;;
26656;SDS011;14279;50.010;8.260;2022-11-02T03:16:41;11.03;;;4.17;;
26656;SDS011;14279;50.010;8.260;2022-11-02T03:19:58;12.70;;;4.33;;
26656;SDS011;14279;50.010;8.260;2022-11-02T03:22:19;18.87;;;5.63;;
26656;SDS011;14279;50.010;8.260;2022-11-02T03:24:51;15.90;;;4.67;;
26656;SDS011;14279;50.010;8.260;2022-11-02T03:27:24;13.53;;;5.77;;
26656;SDS011;14279;50.010;8.260;2022-11-02T03:30:03;16.10;;;5.33;;
26656;SDS011;14279;50.010;8.260;2022-11-02T03:32:35;11.90;;;4.73;;
26656;SDS011;14279;50.010;8.260;2022-11-02T03:35:09;14.43;;;3.83;;
26656;SDS011;14279;50.010;8.260;2022-11-02T03:37:40;21.53;;;6.10;;
26656;SDS011;14279;50.010;8.260;2022-11-02T03:40:31;17.80;;;5.43;;
26656;SDS011;14279;50.010;8.260;2022-11-02T03:42:59;11.17;;;4.57;;
26656;SDS011;14279;50.010;8.260;2022-11-02T03:45:29;14.70;;;4.77;;
26656;SDS011;14279;50.010;8.260;2022-11-02T03:48:01;13.43;;;4.53;;
26656;SDS011;14279;50.010;8.260;2022-11-02T03:50:30;15.70;;;5.00;;
26656;SDS011;14279;50.010;8.260;2022-11-02T03:53:00;16.30;;;4.10;;
26656;SDS011;14279;50.010;8.260;2022-11-02T03:55:35;12.30;;;4.30;;
26656;SDS011;14279;50.010;8.260;2022-11-02T03:58:04;13.50;;;5.13;;
26656;SDS011;14279;50.010;8.260;2022-11-02T04:00:31;15.10;;;4.60;;
26656;SDS011;14279;50.010;8.260;2022-11-02T04:02:59;11.40;;;4.63;;
26656;SDS011;14279;50.010;8.260;2022-11-02T04:05:28;8.53;;;4.40;;
26656;SDS011;14279;50.010;8.260;2022-11-02T04:07:55;12.40;;;4.77;;
26656;SDS011;14279;50.010;8.260;2022-11-02T04:10:40;10.83;;;4.67;;
26656;SDS011;14279;50.010;8.260;2022-11-02T04:13:25;27.50;;;5.17;;
26656;SDS011;14279;50.010;8.260;2022-11-02T04:16:09;12.90;;;4.43;;
26656;SDS011;14279;50.010;8.260;2022-11-02T04:18:34;16.00;;;5.00;;
26656;SDS011;14279;50.010;8.260;2022-11-02T04:21:18;10.10;;;4.57;;
26656;SDS011;14279;50.010;8.260;2022-11-02T04:23:43;11.93;;;4.60;;
26656;SDS011;14279;50.010;8.260;2022-11-02T04:26:27;17.63;;;4.07;;
26656;SDS011;14279;50.010;8.260;2022-11-02T04:28:52;16.13;;;4.60;;
26656;SDS011;14279;50.010;8.260;2022-11-02T04:31:17;16.13;;;5.77;;
26656;SDS011;14279;50.010;8.260;2022-11-02T04:33:43;16.93;;;5.50;;
26656;SDS011;14279;50.010;8.260;2022-11-02T04:36:08;15.47;;;5.60;;
26656;SDS011;14279;50.010;8.260;2022-11-02T04:38:33;18.40;;;5.40;;
26656;SDS011;14279;50.010;8.260;2022-11-02T04:41:05;14.70;;;5.47;;
26656;SDS011;14279;50.010;8.260;2022-11-02T04:43:54;15.73;;;5.70;;
26656;SDS011;14279;50.010;8.260;2022-11-02T04:46:19;13.77;;;5.50;;
26656;SDS011;14279;50.010;8.260;2022-11-02T04:48:46;17.10;;;5.07;;
26656;SDS011;14279;50.010;8.260;2022-11-02T04:51:11;11.33;;;4.77;;
26656;SDS011;14279;50.010;8.260;2022-11-02T04:53:37;14.97;;;5.80;;
26656;SDS011;14279;50.010;8.260;2022-11-02T04:56:03;23.27;;;6.50;;
26656;SDS011;14279;50.010;8.260;2022-11-02T04:58:28;18.97;;;5.67;;
26656;SDS011;14279;50.010;8.260;2022-11-02T05:00:54;20.33;;;5.70;;
26656;SDS011;14279;50.010;8.260;2022-11-02T05:03:19;16.30;;;5.37;;
26656;SDS011;14279;50.010;8.260;2022-11-02T05:05:45;17.90;;;4.90;;
26656;SDS011;14279;50.010;8.260;2022-11-02T05:08:10;13.57;;;4.90;;
26656;SDS011;14279;50.010;8.260;2022-11-02T05:10:36;10.83;;;5.00;;
26656;SDS011;14279;50.010;8.260;2022-11-02T05:13:01;14.53;;;5.10;;
26656;SDS011;14279;50.010;8.260;2022-11-02T05:15:27;15.03;;;5.70;;
26656;SDS011;14279;50.010;8.260;2022-11-02T05:17:52;22.47;;;6.03;;
26656;SDS011;14279;50.010;8.260;2022-11-02T05:20:17;25.57;;;6.87;;
26656;SDS011;14279;50.010;8.260;2022-11-02T05:22:43;16.30;;;4.63;;
26656;SDS011;14279;50.010;8.260;2022-11-02T05:25:11;12.63;;;5.50;;
26656;SDS011;14279;50.010;8.260;2022-11-02T05:27:37;18.63;;;5.17;;
26656;SDS011;14279;50.010;8.260;2022-11-02T05:30:03;16.53;;;6.00;;
26656;SDS011;14279;50.010;8.260;2022-11-02T05:32:30;16.20;;;5.50;;
26656;SDS011;14279;50.010;8.260;2022-11-02T05:34:55;14.37;;;6.20;;
26656;SDS011;14279;50.010;8.260;2022-11-02T05:37:20;11.77;;;5.77;;
26656;SDS011;14279;50.010;8.260;2022-11-02T05:39:46;21.33;;;6.93;;
26656;SDS011;14279;50.010;8.260;2022-11-02T05:42:11;15.43;;;6.40;;
26656;SDS011;14279;50.010;8.260;2022-11-02T05:44:36;22.23;;;5.40;;
26656;SDS011;14279;50.010;8.260;2022-11-02T05:47:02;18.77;;;6.17;;
26656;SDS011;14279;50.010;8.260;2022-11-02T05:49:28;11.97;;;6.27;;
26656;SDS011;14279;50.010;8.260;2022-11-02T05:51:53;16.53;;;5.90;;
26656;SDS011;14279;50.010;8.260;2022-11-02T05:54:19;14.13;;;6.30;;
26656;SDS011;14279;50.010;8.260;2022-11-02T05:56:44;17.00;;;5.60;;
26656;SDS011;14279;50.010;8.260;2022-11-02T05:59:10;13.60;;;6.40;;
26656;SDS011;14279;50.010;8.260;2022-11-02T06:01:35;12.73;;;6.33;;
26656;SDS011;14279;50.010;8.260;2022-11-02T06:04:00;15.70;;;6.20;;
26656;SDS011;14279;50.010;8.260;2022-11-02T06:06:25;15.70;;;6.80;;
26656;SDS011;14279;50.010;8.260;2022-11-02T06:08:50;16.67;;;6.30;;
26656;SDS011;14279;50.010;8.260;2022-11-02T06:11:16;11.40;;;6.10;;
26656;SDS011;14279;50.010;8.260;2022-11-02T06:13:41;14.03;;;6.60;;
26656;SDS011;14279;50.010;8.260;2022-11-02T06:16:07;18.90;;;6.13;;
26656;SDS011;14279;50.010;8.260;2022-11-02T06:18:35;25.63;;;5.93;;
26656;SDS011;14279;50.010;8.260;2022-11-02T06:21:01;12.70;;;5.57;;
26656;SDS011;14279;50.010;8.260;2022-11-02T06:23:27;14.10;;;6.73;;
26656;SDS011;14279;50.010;8.260;2022-11-02T06:25:54;13.83;;;5.57;;
26656;SDS011;14279;50.010;8.260;2022-11-02T06:28:20;14.97;;;5.57;;
26656;SDS011;14279;50.010;8.260;2022-11-02T06:30:47;20.40;;;6.70;;
26656;SDS011;14279;50.010;8.260;2022-11-02T06:33:13;13.97;;;5.03;;
26656;SDS011;14279;50.010;8.260;2022-11-02T06:35:38;11.50;;;6.43;;
26656;SDS011;14279;50.010;8.260;2022-11-02T06:38:04;21.47;;;5.30;;
26656;SDS011;14279;50.010;8.260;2022-11-02T06:40:41;18.93;;;6.37;;
26656;SDS011;14279;50.010;8.260;2022-11-02T06:47:07;15.57;;;4.70;;
26656;SDS011;14279;50.010;8.260;2022-11-02T06:49:33;16.70;;;4.93;;
26656;SDS011;14279;50.010;8.260;2022-11-02T06:51:58;12.30;;;4.40;;
26656;SDS011;14279;50.010;8.260;2022-11-02T06:54:26;15.00;;;4.23;;
26656;SDS011;14279;50.010;8.260;2022-11-02T06:57:15;15.23;;;4.47;;
26656;SDS011;14279;50.010;8.260;2022-11-02T06:59:40;13.37;;;3.60;;
26656;SDS011;14279;50.010;8.260;2022-11-02T07:02:07;17.87;;;4.60;;
26656;SDS011;14279;50.010;8.260;2022-11-02T07:04:32;17.27;;;4.00;;
26656;SDS011;14279;50.010;8.260;2022-11-02T07:06:58;15.93;;;4.40;;
26656;SDS011;14279;50.010;8.260;2022-11-02T07:09:23;14.73;;;4.37;;
26656;SDS011;14279;50.010;8.260;2022-11-02T07:11:51;20.80;;;4.47;;
26656;SDS011;14279;50.010;8.260;2022-11-02T07:14:17;16.10;;;4.40;;
26656;SDS011;14279;50.010;8.260;2022-11-02T07:16:42;12.13;;;4.27;;
26656;SDS011;14279;50.010;8.260;2022-11-02T07:19:08;14.63;;;4.37;;
26656;SDS011;14279;50.010;8.260;2022-11-02T07:21:33;20.30;;;4.27;;
26656;SDS011;14279;50.010;8.260;2022-11-02T07:23:58;19.60;;;3.90;;
26656;SDS011;14279;50.010;8.260;2022-11-02T07:26:24;11.50;;;4.07;;
26656;SDS011;14279;50.010;8.260;2022-11-02T07:28:50;21.20;;;4.40;;
26656;SDS011;14279;50.010;8.260;2022-11-02T07:31:16;9.67;;;3.53;;
26656;SDS011;14279;50.010;8.260;2022-11-02T07:33:56;11.23;;;3.37;;
26656;SDS011;14279;50.010;8.260;2022-11-02T07:36:21;12.53;;;3.73;;
26656;SDS011;14279;50.010;8.260;2022-11-02T07:38:46;11.23;;;3.50;;
26656;SDS011;14279;50.010;8.260;2022-11-02T07:41:12;15.63;;;3.53;;
26656;SDS011;14279;50.010;8.260;2022-11-02T07:43:37;16.07;;;4.53;;
26656;SDS011;14279;50.010;8.260;2022-11-02T07:46:03;16.97;;;3.77;;
26656;SDS011;14279;50.010;8.260;2022-11-02T07:48:28;11.50;;;3.90;;
26656;SDS011;14279;50.010;8.260;2022-11-02T07:50:56;11.27;;;3.80;;
26656;SDS011;14279;50.010;8.260;2022-11-02T07:53:22;17.33;;;4.20;;
26656;SDS011;14279;50.010;8.260;2022-11-02T07:55:47;14.50;;;3.70;;
26656;SDS011;14279;50.010;8.260;2022-11-02T07:58:13;16.23;;;5.00;;
26656;SDS011;14279;50.010;8.260;2022-11-02T08:00:38;35.53;;;6.43;;
26656;SDS011;14279;50.010;8.260;2022-11-02T08:03:05;29.00;;;5.93;;
26656;SDS011;14279;50.010;8.260;2022-11-02T08:05:32;20.20;;;4.93;;
26656;SDS011;14279;50.010;8.260;2022-11-02T08:07:59;34.83;;;6.43;;
26656;SDS011;14279;50.010;8.260;2022-11-02T08:10:27;24.00;;;5.73;;
26656;SDS011;14279;50.010;8.260;2022-11-02T08:12:54;18.17;;;5.60;;
26656;SDS011;14279;50.010;8.260;2022-11-02T08:15:19;15.17;;;4.30;;
26656;SDS011;14279;50.010;8.260;2022-11-02T08:17:44;26.40;;;5.23;;
26656;SDS011;14279;50.010;8.260;2022-11-02T08:20:10;27.90;;;5.07;;
26656;SDS011;14279;50.010;8.260;2022-11-02T08:22:38;12.00;;;4.33;;
26656;SDS011;14279;50.010;8.260;2022-11-02T08:25:08;17.10;;;4.50;;
26656;SDS011;14279;50.010;8.260;2022-11-02T08:27:33;19.43;;;4.70;;
26656;SDS011;14279;50.010;8.260;2022-11-02T08:29:59;12.97;;;3.37;;
26656;SDS011;14279;50.010;8.260;2022-11-02T08:32:24;15.57;;;3.70;;
26656;SDS011;14279;50.010;8.260;2022-11-02T08:34:49;14.03;;;3.93;;
26656;SDS011;14279;50.010;8.260;2022-11-02T08:37:15;14.67;;;4.13;;
26656;SDS011;14279;50.010;8.260;2022-11-02T08:39:40;15.00;;;4.30;;
26656;SDS011;14279;50.010;8.260;2022-11-02T08:42:05;14.30;;;3.90;;
26656;SDS011;14279;50.010;8.260;2022-11-02T08:44:31;18.20;;;4.20;;
26656;SDS011;14279;50.010;8.260;2022-11-02T08:46:57;18.50;;;4.13;;
26656;SDS011;14279;50.010;8.260;2022-11-02T08:49:23;12.80;;;4.10;;
26656;SDS011;14279;50.010;8.260;2022-11-02T08:51:50;19.30;;;4.27;;
26656;SDS011;14279;50.010;8.260;2022-11-02T08:54:15;24.03;;;3.77;;
26656;SDS011;14279;50.010;8.260;2022-11-02T08:56:41;9.80;;;3.30;;
26656;SDS011;14279;50.010;8.260;2022-11-02T08:59:07;12.37;;;3.50;;
26656;SDS011;14279;50.010;8.260;2022-11-02T09:01:32;14.47;;;3.40;;
26656;SDS011;14279;50.010;8.260;2022-11-02T09:03:57;16.33;;;3.27;;
26656;SDS011;14279;50.010;8.260;2022-11-02T09:06:23;12.73;;;3.30;;
26656;SDS011;14279;50.010;8.260;2022-11-02T09:08:48;8.30;;;2.70;;
26656;SDS011;14279;50.010;8.260;2022-11-02T09:11:13;11.33;;;2.60;;
26656;SDS011;14279;50.010;8.260;2022-11-02T09:13:39;9.30;;;2.77;;
26656;SDS011;14279;50.010;8.260;2022-11-02T09:16:04;15.43;;;3.57;;
26656;SDS011;14279;50.010;8.260;2022-11-02T09:18:31;13.63;;;3.53;;
26656;SDS011;14279;50.010;8.260;2022-11-02T09:20:59;9.60;;;3.37;;
26656;SDS011;14279;50.010;8.260;2022-11-02T09:23:26;13.67;;;2.57;;
26656;SDS011;14279;50.010;8.260;2022-11-02T09:25:51;15.53;;;2.70;;
26656;SDS011;14279;50.010;8.260;2022-11-02T09:28:16;15.80;;;2.10;;
26656;SDS011;14279;50.010;8.260;2022-11-02T09:30:42;11.50;;;3.30;;
26656;SDS011;14279;50.010;8.260;2022-11-02T09:33:07;13.67;;;2.80;;
26656;SDS011;14279;50.010;8.260;2022-11-02T09:35:34;15.03;;;3.33;;
26656;SDS011;14279;50.010;8.260;2022-11-02T09:38:00;18.50;;;3.20;;
26656;SDS011;14279;50.010;8.260;2022-11-02T09:40:28;11.27;;;2.17;;
26656;SDS011;14279;50.010;8.260;2022-11-02T09:43:07;13.50;;;3.00;;
26656;SDS011;14279;50.010;8.260;2022-11-02T09:45:35;16.80;;;3.43;;
26656;SDS011;14279;50.010;8.260;2022-11-02T09:48:09;18.63;;;3.23;;
26656;SDS011;14279;50.010;8.260;2022-11-02T09:56:36;8.77;;;2.80;;
26656;SDS011;14279;50.010;8.260;2022-11-02T09:59:12;13.20;;;2.97;;
26656;SDS011;14279;50.010;8.260;2022-11-02T10:01:54;10.80;;;3.07;;
26656;SDS011;14279;50.010;8.260;2022-11-02T10:04:57;10.20;;;2.27;;
26656;SDS011;14279;50.010;8.260;2022-11-02T10:07:52;17.07;;;3.23;;
26656;SDS011;14279;50.010;8.260;2022-11-02T10:10:42;9.60;;;2.27;;
26656;SDS011;14279;50.010;8.260;2022-11-02T10:13:43;9.13;;;2.77;;
26656;SDS011;14279;50.010;8.260;2022-11-02T10:16:17;8.50;;;2.63;;
26656;SDS011;14279;50.010;8.260;2022-11-02T10:18:47;15.63;;;2.50;;
26656;SDS011;14279;50.010;8.260;2022-11-02T10:21:22;13.90;;;2.60;;
26656;SDS011;14279;50.010;8.260;2022-11-02T10:23:52;11.40;;;2.77;;
26656;SDS011;14279;50.010;8.260;2022-11-02T10:26:30;11.57;;;2.83;;
26656;SDS011;14279;50.010;8.260;2022-11-02T10:28:59;9.07;;;2.27;;
26656;SDS011;14279;50.010;8.260;2022-11-02T10:31:33;17.90;;;2.90;;
26656;SDS011;14279;50.010;8.260;2022-11-02T10:34:20;12.43;;;2.93;;
26656;SDS011;14279;50.010;8.260;2022-11-02T10:45:15;4.70;;;1.83;;
26656;SDS011;14279;50.010;8.260;2022-11-02T10:48:05;10.73;;;2.60;;
26656;SDS011;14279;50.010;8.260;2022-11-02T10:53:17;10.17;;;2.13;;
26656;SDS011;14279;50.010;8.260;2022-11-02T10:55:55;18.40;;;3.13;;
26656;SDS011;14279;50.010;8.260;2022-11-02T10:58:27;18.00;;;2.67;;
26656;SDS011;14279;50.010;8.260;2022-11-02T11:01:06;18.53;;;2.77;;
26656;SDS011;14279;50.010;8.260;2022-11-02T11:03:32;19.00;;;2.80;;
26656;SDS011;14279;50.010;8.260;2022-11-02T11:05:59;9.67;;;2.60;;
26656;SDS011;14279;50.010;8.260;2022-11-02T11:10:54;11.23;;;2.53;;
26656;SDS011;14279;50.010;8.260;2022-11-02T11:13:33;15.03;;;2.17;;
26656;SDS011;14279;50.010;8.260;2022-11-02T11:15:58;12.50;;;2.20;;
26656;SDS011;14279;50.010;8.260;2022-11-02T11:18:25;14.33;;;2.30;;
26656;SDS011;14279;50.010;8.260;2022-11-02T11:20:52;7.33;;;2.10;;
26656;SDS011;14279;50.010;8.260;2022-11-02T11:23:23;15.93;;;2.90;;
26656;SDS011;14279;50.010;8.260;2022-11-02T11:28:21;6.77;;;2.27;;
26656;SDS011;14279;50.010;8.260;2022-11-02T11:30:48;9.10;;;2.90;;
26656;SDS011;14279;50.010;8.260;2022-11-02T11:33:29;8.60;;;2.80;;
26656;SDS011;14279;50.010;8.260;2022-11-02T11:35:56;13.13;;;2.60;;
26656;SDS011;14279;50.010;8.260;2022-11-02T11:38:23;15.97;;;3.07;;
26656;SDS011;14279;50.010;8.260;2022-11-02T11:40:55;11.83;;;2.10;;
26656;SDS011;14279;50.010;8.260;2022-11-02T11:43:27;5.97;;;2.20;;
26656;SDS011;14279;50.010;8.260;2022-11-02T11:46:01;7.63;;;2.07;;
26656;SDS011;14279;50.010;8.260;2022-11-02T11:51:34;15.67;;;2.70;;
26656;SDS011;14279;50.010;8.260;2022-11-02T11:56:46;8.87;;;2.07;;
26656;SDS011;14279;50.010;8.260;2022-11-02T11:59:21;16.50;;;2.50;;
26656;SDS011;14279;50.010;8.260;2022-11-02T12:01:47;7.77;;;1.90;;
26656;SDS011;14279;50.010;8.260;2022-11-02T12:04:12;9.77;;;2.40;;
26656;SDS011;14279;50.010;8.260;2022-11-02T12:09:45;13.33;;;3.00;;
26656;SDS011;14279;50.010;8.260;2022-11-02T12:12:30;7.40;;;1.93;;
26656;SDS011;14279;50.010;8.260;2022-11-02T12:15:39;8.60;;;2.37;;
26656;SDS011;14279;50.010;8.260;2022-11-02T12:18:22;4.53;;;2.03;;
26656;SDS011;14279;50.010;8.260;2022-11-02T12:21:00;8.33;;;2.30;;
26656;SDS011;14279;50.010;8.260;2022-11-02T12:23:50;6.70;;;2.00;;
26656;SDS011;14279;50.010;8.260;2022-11-02T12:35:15;11.70;;;2.63;;
26656;SDS011;14279;50.010;8.260;2022-11-02T12:43:21;17.83;;;2.63;;
26656;SDS011;14279;50.010;8.260;2022-11-02T12:51:26;7.50;;;2.57;;
26656;SDS011;14279;50.010;8.260;2022-11-02T12:54:05;9.13;;;2.13;;
26656;SDS011;14279;50.010;8.260;2022-11-02T12:59:21;7.97;;;2.07;;
26656;SDS011;14279;50.010;8.260;2022-11-02T13:01:56;9.07;;;1.90;;
26656;SDS011;14279;50.010;8.260;2022-11-02T13:07:48;10.50;;;2.30;;
26656;SDS011;14279;50.010;8.260;2022-11-02T13:10:39;11.63;;;1.90;;
26656;SDS011;14279;50.010;8.260;2022-11-02T13:13:11;7.30;;;1.97;;
26656;SDS011;14279;50.010;8.260;2022-11-02T13:15:40;23.00;;;2.20;;
26656;SDS011;14279;50.010;8.260;2022-11-02T13:18:11;14.03;;;2.13;;
26656;SDS011;14279;50.010;8.260;2022-11-02T13:20:42;8.40;;;2.23;;
26656;SDS011;14279;50.010;8.260;2022-11-02T13:23:14;16.50;;;2.33;;
26656;SDS011;14279;50.010;8.260;2022-11-02T13:25:47;8.90;;;2.20;;
26656;SDS011;14279;50.010;8.260;2022-11-02T13:30:56;9.67;;;2.10;;
26656;SDS011;14279;50.010;8.260;2022-11-02T13:33:24;10.03;;;2.33;;
26656;SDS011;14279;50.010;8.260;2022-11-02T13:35:54;10.43;;;2.63;;
26656;SDS011;14279;50.010;8.260;2022-11-02T13:38:23;8.83;;;2.00;;
26656;SDS011;14279;50.010;8.260;2022-11-02T13:41:12;10.73;;;2.40;;
26656;SDS011;14279;50.010;8.260;2022-11-02T13:44:32;8.07;;;2.13;;
26656;SDS011;14279;50.010;8.260;2022-11-02T13:46:56;9.47;;;2.40;;
26656;SDS011;14279;50.010;8.260;2022-11-02T13:49:48;6.87;;;1.90;;
26656;SDS011;14279;50.010;8.260;2022-11-02T13:52:19;9.43;;;2.33;;
26656;SDS011;14279;50.010;8.260;2022-11-02T13:54:52;8.57;;;1.97;;
26656;SDS011;14279;50.010;8.260;2022-11-02T13:57:33;11.90;;;2.20;;
26656;SDS011;14279;50.010;8.260;2022-11-02T14:00:05;12.57;;;2.20;;
26656;SDS011;14279;50.010;8.260;2022-11-02T14:02:51;16.00;;;1.87;;
26656;SDS011;14279;50.010;8.260;2022-11-02T14:05:40;9.93;;;2.07;;
26656;SDS011;14279;50.010;8.260;2022-11-02T14:08:19;8.77;;;2.17;;
26656;SDS011;14279;50.010;8.260;2022-11-02T14:18:24;10.53;;;2.47;;
26656;SDS011;14279;50.010;8.260;2022-11-02T14:21:38;9.20;;;2.50;;
26656;SDS011;14279;50.010;8.260;2022-11-02T14:24:49;5.33;;;2.33;;
26656;SDS011;14279;50.010;8.260;2022-11-02T14:26:56;11.60;;;2.70;;
26656;SDS011;14279;50.010;8.260;2022-11-02T14:32:53;6.97;;;1.90;;
26656;SDS011;14279;50.010;8.260;2022-11-02T14:40:50;10.13;;;2.47;;
26656;SDS011;14279;50.010;8.260;2022-11-02T14:49:36;7.00;;;2.10;;
26656;SDS011;14279;50.010;8.260;2022-11-02T14:54:51;6.70;;;2.20;;
26656;SDS011;14279;50.010;8.260;2022-11-02T14:57:27;12.07;;;2.37;;
26656;SDS011;14279;50.010;8.260;2022-11-02T14:59:56;10.13;;;2.00;;
26656;SDS011;14279;50.010;8.260;2022-11-02T15:04:59;7.27;;;2.60;;
26656;SDS011;14279;50.010;8.260;2022-11-02T15:07:37;7.17;;;2.20;;
26656;SDS011;14279;50.010;8.260;2022-11-02T15:12:39;4.60;;;2.17;;
26656;SDS011;14279;50.010;8.260;2022-11-02T15:24:50;15.60;;;2.63;;
26656;SDS011;14279;50.010;8.260;2022-11-02T15:27:18;13.97;;;2.60;;
26656;SDS011;14279;50.010;8.260;2022-11-02T15:29:45;14.97;;;2.90;;
26656;SDS011;14279;50.010;8.260;2022-11-02T15:32:14;23.17;;;2.97;;
26656;SDS011;14279;50.010;8.260;2022-11-02T15:34:43;7.53;;;2.50;;
26656;SDS011;14279;50.010;8.260;2022-11-02T15:37:15;6.27;;;2.10;;
26656;SDS011;14279;50.010;8.260;2022-11-02T15:39:48;13.27;;;2.57;;
26656;SDS011;14279;50.010;8.260;2022-11-02T15:42:18;9.23;;;2.47;;
26656;SDS011;14279;50.010;8.260;2022-11-02T15:45:14;9.73;;;2.70;;
26656;SDS011;14279;50.010;8.260;2022-11-02T15:53:53;8.43;;;2.40;;
26656;SDS011;14279;50.010;8.260;2022-11-02T15:56:32;9.37;;;2.90;;
26656;SDS011;14279;50.010;8.260;2022-11-02T16:04:44;16.83;;;3.00;;
26656;SDS011;14279;50.010;8.260;2022-11-02T16:07:12;11.17;;;3.20;;
26656;SDS011;14279;50.010;8.260;2022-11-02T16:09:39;20.23;;;4.70;;
26656;SDS011;14279;50.010;8.260;2022-11-02T16:12:14;10.93;;;2.90;;
26656;SDS011;14279;50.010;8.260;2022-11-02T16:14:57;17.60;;;3.43;;
26656;SDS011;14279;50.010;8.260;2022-11-02T16:17:30;17.00;;;3.50;;
26656;SDS011;14279;50.010;8.260;2022-11-02T16:22:46;15.23;;;3.13;;
26656;SDS011;14279;50.010;8.260;2022-11-02T16:25:24;14.73;;;3.00;;
26656;SDS011;14279;50.010;8.260;2022-11-02T16:27:52;17.13;;;3.20;;
26656;SDS011;14279;50.010;8.260;2022-11-02T16:30:18;20.10;;;3.37;;
26656;SDS011;14279;50.010;8.260;2022-11-02T16:32:45;13.67;;;3.27;;
26656;SDS011;14279;50.010;8.260;2022-11-02T16:35:16;15.13;;;3.20;;
26656;SDS011;14279;50.010;8.260;2022-11-02T16:37:43;12.93;;;3.20;;
26656;SDS011;14279;50.010;8.260;2022-11-02T16:40:18;8.10;;;2.80;;
26656;SDS011;14279;50.010;8.260;2022-11-02T16:42:46;16.40;;;3.43;;
26656;SDS011;14279;50.010;8.260;2022-11-02T16:45:32;9.37;;;2.70;;
26656;SDS011;14279;50.010;8.260;2022-11-02T16:48:14;13.30;;;3.43;;
26656;SDS011;14279;50.010;8.260;2022-11-02T16:50:58;15.20;;;3.50;;
26656;SDS011;14279;50.010;8.260;2022-11-02T16:53:29;11.87;;;3.17;;
26656;SDS011;14279;50.010;8.260;2022-11-02T16:55:57;13.10;;;3.30;;
26656;SDS011;14279;50.010;8.260;2022-11-02T16:58:37;11.70;;;3.43;;
26656;SDS011;14279;50.010;8.260;2022-11-02T17:01:10;11.50;;;3.57;;
26656;SDS011;14279;50.010;8.260;2022-11-02T17:03:44;10.67;;;3.30;;
26656;SDS011;14279;50.010;8.260;2022-11-02T17:06:09;14.37;;;3.30;;